x

Neah Bay, - 6nm North Of Cape Flattery, Wa (traffic Separation Lighted Buoy) (46087) Weather Station

5:20 - Tue 5th May 2015 All times are PDT. -7 hours from GMT.

  • Wind
    4mph, 7mph gusts
  • Luft Temp 50°f
  • Sea Pressure 1018.6mb
  • Neah Bay, - 6nm North Of Cape Flattery, Wa     (traffic Separation Lighted Buoy)
  • Neah Bay, - 6nm North Of Cape Flattery, Wa     (traffic Separation Lighted Buoy)

More Historic Weather Station data

Upgrade to MSW Pro to gain access to the past 30 days of data for over 8000 Wavebouys and Weather Stations around the globe.

Join Pro

Comparision Forecast

View Surf forecast
   
Di 05/05 5:20  -   -   -  4 7 mph 1018.6mb 50f
4:50 6.5ft 11s 8s 4 7 mph 1018.5mb 50f
4:20  -   -   -  7 9 mph 1018.6mb 50f
3:50 7ft 11s 7s 7 9 mph 1018.6mb 50f
3:20  -   -   -  9 11 mph 1018.6mb 50f
2:50 7ft 11s 7s 9 13 mph 1018.4mb 50f
2:20  -   -   -  9 13 mph 1018.3mb 50f
1:50 7.5ft 12s 7s 13 16 mph 1018.1mb 50f
1:20  -   -   -  7 9 mph 1018.1mb 51f
12:50 8ft 11s 8s 7 9 mph 1018mb 50f
12:20  -   -   -  7 9 mph 1017.9mb 50f
11:50 9.5ft 11s 8s 7 9 mph 1017.7mb 50f
11:20  -   -   -  4 9 mph 1017.6mb 50f
10:50 8.5ft 12s 8s 7 9 mph 1017.3mb 49f
10:20  -   -   -  2 4 mph 1017mb 49f
9:50 9ft 12s 9s 2 4 mph 1016.8mb 49f
9:20  -   -   -  7 11 mph 1016.5mb 48f
8:50 9ft 10s 9s 9 13 mph 1016.2mb 48f
8:20  -   -   -  9 13 mph 1015.8mb 47f
7:50 9ft 12s 9s 9 11 mph 1015.5mb 47f
7:20  -   -   -  9 13 mph 1015.2mb 47f
6:50 9ft 12s 9s 7 11 mph 1015mb 47f
6:20  -   -   -  7 11 mph 1014.6mb 47f
5:50 9ft 11s 8s 7 9 mph 1014.2mb 47f
5:20  -   -   -  11 13 mph 1014.1mb 47f
4:50 9.5ft 11s 8s 9 13 mph 1013.8mb 48f
4:20  -   -   -  9 11 mph 1013.9mb 48f
3:50  -   -   -  9 13 mph 1013.8mb 47f
3:20  -   -   -  9 11 mph 1013.6mb 49f
2:50 8.5ft 12s 8s 9 11 mph 1013.6mb 48f
2:20  -   -   -  7 11 mph 1013.5mb 49f
1:50 8ft 11s 8s 11 18 mph 1013.4mb 50f
1:20  -   -   -  13 16 mph 1013.4mb 49f
12:50 8.5ft 12s 8s 9 11 mph 1013.6mb 50f
12:20  -   -   -  11 13 mph 1013.3mb 50f
Mo 05/04 11:50  -   -   -  9 13 mph 1013.2mb 49f
11:20  -   -   -  7 11 mph 1013.4mb 50f
10:50 8ft 13s 8s 7 9 mph 1013.4mb 50f
10:20  -   -   -  9 11 mph 1013.5mb 48f
9:50 8ft 14s 8s 16 18 mph 1013.6mb 49f
9:20  -   -   -  22 31 mph 1013.1mb 50f
8:50 7ft 14s 8s 11 16 mph 1013.3mb 50f
8:20  -   -   -  22 31 mph 1013mb 51f
7:50 6.5ft 14s 8s 11 16 mph 1013.5mb 51f
7:20  -   -   -  9
mph
1013.8mb 51f
6:50 6ft 15s 8s 9 11 mph 1014mb 51f
6:20  -   -   -  9
mph
1014.2mb 52f
5:50 5ft 14s 7s 9 11 mph 1014.1mb 51f
5:20  -   -   -  13 18 mph 1013.9mb 51f
4:50 5ft 15s 7s 16 18 mph 1014mb 50f
4:20  -   -   -  11 13 mph 1014.3mb 51f
3:50 5.5ft 15s 6s 16 18 mph 1014.1mb 50f
3:20  -   -   -  25 31 mph 1013.7mb 49f
2:50 5ft 15s 5s 20 29 mph 1013.7mb 50f
2:20  -   -   -  22 27 mph 1013.5mb 49f
1:50 4.5ft 16s 5s 22 27 mph 1013.6mb 49f
1:20  -   -   -  25 29 mph 1013.3mb 49f
12:50 3.5ft 15s 5s 20 27 mph 1013.4mb 50f
12:20  -   -   -  22 27 mph 1013.3mb 51f
11:50 3.5ft 16s 7s 18 25 mph 1013.1mb 51f
11:20  -   -   -  16 18 mph 1013.2mb 51f
10:50 3.5ft 9s 7s 11
mph
1013.3mb 50f
10:20  -   -   -  9 11 mph 1013.1mb 50f
9:50 3.5ft 8s 7s 9 11 mph 1013.2mb 50f
9:20  -   -   -  9 11 mph 1013.1mb 50f
8:50 3.5ft 8s 7s 9
mph
1013mb 50f
8:20  -   -   -  9 13 mph 1012.9mb 50f
7:50 3.5ft 9s 7s 7 9 mph 1012.9mb 50f
7:20  -   -   -  4 7 mph 1012.7mb 50f
6:50 3.5ft 10s 7s 7 9 mph 1012.5mb 49f
6:20  -   -   -  7
mph
1012.4mb 49f
5:50 3.5ft 9s 6s 4 7 mph 1012.2mb 49f
5:20  -   -   -  4 7 mph 1012.2mb 49f
4:50 4ft 8s 6s 7 9 mph 1012.2mb 49f
4:20  -   -   -  7 9 mph 1012.3mb 50f
3:50 4.5ft 9s 6s 7 9 mph 1012.3mb 49f
3:20  -   -   -  7 9 mph 1012.1mb 50f
2:50 4.5ft 8s 6s 9 11 mph 1012.1mb 50f
2:20  -   -   -  9 11 mph 1012.3mb 50f
1:50 5ft 9s 6s 9 11 mph 1012.4mb 50f
1:20  -   -   -  9 11 mph 1012.6mb 50f
12:50 4.5ft 10s 6s 7 9 mph 1012.6mb 50f
12:20  -   -   -  9 11 mph 1012.6mb 50f
So 05/03 11:50 5ft 10s 7s 7 9 mph 1012.6mb 50f
11:20  -   -   -  7 9 mph 1012.7mb 50f
10:50 5ft 9s 7s 7 9 mph 1012.9mb 50f
10:20  -   -   -  7 9 mph 1012.9mb 51f
9:50 5ft 9s 7s 7 9 mph 1013.1mb 51f
9:20  -   -   -  9 11 mph 1013.1mb 51f
8:50 5ft 10s 7s 7 9 mph 1013.1mb 51f
8:20  -   -   -  11 13 mph 1013mb 51f
7:50 5ft 9s 7s 13 16 mph 1013.1mb 51f
7:20  -   -   -  11 13 mph 1013.3mb 52f
6:50 5ft 10s  -  11 16 mph 1013.7mb 52f
6:20  -   -   -  11 13 mph 1014mb 52f
5:50 5ft 8s 7s 11 13 mph 1014.1mb 52f
5:20  -   -   -  9 11 mph 1014.2mb 52f
4:50 5ft 11s 7s 11 13 mph 1014.5mb 52f
4:20  -   -   -  11 13 mph 1014.8mb 51f
3:50 5ft 8s 7s 9 11 mph 1015.2mb 52f
3:20  -   -   -  7 9 mph 1015.5mb 51f
2:50 5ft 7s 6s 7
mph
1015.8mb 51f
2:20  -   -   -  4 7 mph 1015.9mb 51f
1:50 6ft 8s 7s 2 4 mph 1016.1mb 51f
1:20  -   -   -  2 4 mph 1016.3mb 51f
12:50 6.5ft 10s 7s 4 7 mph 1016.5mb 51f
12:20  -   -   -  4 7 mph 1016.8mb 50f
11:50 6.5ft 8s 7s 7 11 mph 1016.8mb 50f
11:20  -   -   -  9 13 mph 1016.9mb 49f
10:50 7ft 10s 8s 9 11 mph 1016.8mb 49f
10:20  -   -   -  9 11 mph 1016.9mb 49f
9:50 6.5ft 11s 8s 7 11 mph 1016.9mb 49f
9:20  -   -   -  9 13 mph 1016.7mb 49f
8:50 6ft 11s 8s 11 16 mph 1016.8mb 49f
8:20  -   -   -  13 16 mph 1016.9mb 48f
7:50 6ft 11s 8s 16 18 mph 1016.9mb 47f
7:20  -   -   -  16 18 mph 1016.7mb 47f
6:50 6.5ft 11s 8s 13 18 mph 1016.6mb 47f
6:20  -   -   -  13 16 mph 1016.6mb 47f
5:50 6.5ft 10s 8s 11 13 mph 1016.5mb 48f
5:20  -   -   -  11 13 mph 1016.5mb 48f
4:50 6.5ft 11s 7s 13 18 mph 1016.3mb 48f
4:20  -   -   -  16 20 mph 1016.1mb 47f
3:50 7.5ft 11s 7s 9 13 mph 1016.2mb 49f
3:20  -   -   -  4 7 mph 1016.3mb 48f
2:50 7ft 11s 7s 4
mph
1016.5mb 49f
2:20  -   -   -   -  2 mph 1016.6mb 49f
1:50 7ft 10s 7s 4 9 mph 1016.5mb 49f
1:20  -   -   -  9 11 mph 1016.7mb 49f
12:50 7ft 11s 7s 9 13 mph 1016.8mb 50f
12:20  -   -   -  4 9 mph 1016.8mb 50f
Sa 05/02 11:50 7ft 11s 7s 2 4 mph 1016.9mb 50f
11:20  -   -   -  4
mph
1017.1mb 51f
10:50 6.5ft 11s 7s 4 7 mph 1017.2mb 51f
10:20  -   -   -  2 4 mph 1017.3mb 51f
9:50 7ft 11s 8s  -  4 mph 1017.3mb 51f
9:20  -   -   -  4 7 mph 1017.3mb 51f
8:50 7ft 11s 8s 7 11 mph 1017.1mb 51f
8:20  -   -   -  9 11 mph 1017mb 51f
7:50 7.5ft 11s 8s 7 9 mph 1017.1mb 52f
7:20  -   -   -  9 11 mph 1017.3mb 52f
6:50 8ft 9s 8s 7 9 mph 1017.6mb 52f
6:20  -   -   -  7 9 mph 1017.9mb 52f
5:50 8ft 9s 8s 9 11 mph 1018.1mb 51f
5:20  -   -   -  7 11 mph 1018.3mb 51f
4:50 8ft 11s 8s 9 11 mph 1018.3mb 50f
4:20  -   -   -  7 9 mph 1018.6mb 50f
3:50 7.5ft 10s 7s 7 9 mph 1018.8mb 50f
3:20  -   -   -  7
mph
1019mb 50f
2:50 7ft 10s 7s 2 7 mph 1019mb 50f
2:20  -   -   -  2 4 mph 1019.1mb 50f
1:50 8.5ft 10s 8s 2 4 mph 1019.4mb 50f
1:20  -   -   -   -  4 mph 1019.4mb 49f
12:50 9ft 10s 7s  -  4 mph 1019.5mb 49f
12:20  -   -   -  4 7 mph 1019.6mb 49f
11:50 8ft 10s 7s 2 7 mph 1019.7mb 49f
11:20  -   -   -  4 9 mph 1019.6mb 49f
10:50 9ft 11s 8s 4 9 mph 1019.5mb 49f
10:20  -   -   -  7 11 mph 1019.5mb 48f
9:50 9ft 8s 8s 9 11 mph 1019.5mb 48f
9:20  -   -   -  9 13 mph 1019.3mb 47f
8:50 8ft 11s 8s 9 13 mph 1019.4mb 47f
8:20  -   -   -  11 13 mph 1019.3mb 47f
7:50 8.5ft 11s 8s 9 13 mph 1019.2mb 46f
7:20  -   -   -  7 9 mph 1019mb 46f
6:50 8ft 12s 8s 4 9 mph 1018.9mb 46f
6:20  -   -   -  4 9 mph 1018.7mb 46f
5:50 9ft 8s 8s 4 9 mph 1018.5mb 47f
5:20  -   -   -  4 7 mph 1018.4mb 46f
4:50 9ft 8s 8s 2 4 mph 1018.4mb 47f
4:20  -   -   -  4 9 mph 1018.3mb 46f
3:50 9ft 9s 8s 4 7 mph 1018.3mb 47f
3:20  -   -   -  7 9 mph 1018.2mb 47f
2:50 8.5ft 8s 8s 9 13 mph 1018.1mb 47f
2:20  -   -   -  11 13 mph 1018mb 47f
1:50 8ft 11s 7s 11 16 mph 1018.1mb 48f
1:20  -   -   -  11 13 mph 1018.1mb 48f